Terminal Aerodrome Forecast
Issued by NWS

Home | Current Version | Previous Version | Text Only | Print | Product List | Glossary On
Versions: 1 2 3 4 5 6 7 8 9 10 11 12
000
FTUS44 KTSA 291700
TAFRVS
TAF
KRVS 291736Z 2918/3018 07005KT P6SM FEW120 SCT250
     FM300000 11008KT P6SM SCT250
     FM301200 11003KT P6SM VCSH OVC100
      TEMPO 3012/3016 3SM -RA OVC050
     FM301600 01002KT P6SM -RA OVC080
      TEMPO 3016/3018 3SM -RA OVC050=

USA.gov is the U.S. government's official web portal to all federal, state and local government web resources and services.